Time;durP1;ratioP1;P1;durP2;ratioP2;P2;SDS_P1;SDS_P2;PMS_P1;PMS_P2;Temp;Humidity;BMP_temperature;BMP_pressure;BME280_temperature;BME280_humidity;BME280_pressure;Samples;Min_cycle;Max_cycle;Signal;HPM_P1;HPM_P2
2022/07/12 00:01:49;;;;;;;46.33;30.85;;;14.50;99.90;;;;;;5073336;28;20280;-62
2022/07/12 00:04:14;;;;;;;40.25;28.90;;;14.50;99.90;;;;;;5073663;28;20647;-63
2022/07/12 00:06:40;;;;;;;42.78;28.67;;;14.50;99.90;;;;;;5072928;28;20499;-62
2022/07/12 00:09:05;;;;;;;37.47;28.08;;;14.60;99.90;;;;;;5073570;28;20130;-63
2022/07/12 00:11:31;;;;;;;41.05;28.83;;;14.50;99.90;;;;;;5073067;28;20085;-63
2022/07/12 00:13:56;;;;;;;37.92;26.60;;;14.60;99.90;;;;;;5073450;28;20016;-63
2022/07/12 00:16:22;;;;;;;44.60;27.23;;;14.60;99.90;;;;;;5073295;28;20368;-63
2022/07/12 00:18:48;;;;;;;42.10;28.10;;;14.70;99.90;;;;;;5073325;28;20025;-63
2022/07/12 00:21:14;;;;;;;39.60;27.33;;;14.60;99.90;;;;;;5072509;28;20078;-61
2022/07/12 00:23:40;;;;;;;37.00;26.83;;;14.50;99.90;;;;;;5072862;28;20043;-63
2022/07/12 00:26:05;;;;;;;41.55;27.75;;;14.50;99.90;;;;;;5073227;28;20061;-62
2022/07/12 00:28:32;;;;;;;42.65;27.02;;;14.50;99.90;;;;;;5073100;28;20020;-63
2022/07/12 00:30:58;;;;;;;40.85;27.10;;;14.40;99.90;;;;;;5072943;28;20074;-63
2022/07/12 00:33:24;;;;;;;35.90;27.05;;;14.30;99.90;;;;;;5072786;28;20043;-63
2022/07/12 00:35:50;;;;;;;42.55;28.95;;;14.20;99.90;;;;;;5072033;28;20083;-62
2022/07/12 00:38:15;;;;;;;39.95;27.73;;;14.20;99.90;;;;;;5072067;28;20052;-59
2022/07/12 00:40:41;;;;;;;45.63;27.45;;;14.20;99.90;;;;;;5072872;28;20530;-63
2022/07/12 00:43:06;;;;;;;41.40;25.33;;;14.20;99.90;;;;;;5072048;28;20029;-62
2022/07/12 00:45:32;;;;;;;39.95;28.10;;;14.20;99.90;;;;;;5072473;28;20060;-62
2022/07/12 00:47:59;;;;;;;38.10;27.10;;;14.20;99.90;;;;;;5072795;28;20402;-61
2022/07/12 00:50:24;;;;;;;46.90;27.73;;;14.20;99.90;;;;;;5072222;28;20025;-61
2022/07/12 00:52:54;;;;;;;38.33;27.25;;;14.10;99.90;;;;;;5072119;28;20029;-62
2022/07/12 00:55:21;;;;;;;42.60;29.10;;;14.00;99.90;;;;;;5072134;28;20386;-60
2022/07/12 00:57:47;;;;;;;42.25;28.45;;;14.00;99.90;;;;;;5072596;28;20035;-61
2022/07/12 01:00:15;;;;;;;39.38;26.85;;;14.00;99.90;;;;;;5072555;28;20021;-61
2022/07/12 01:02:42;;;;;;;43.75;27.90;;;14.10;99.90;;;;;;5072043;28;20089;-62
2022/07/12 01:05:08;;;;;;;43.67;27.58;;;14.10;99.90;;;;;;5072400;28;20020;-62
2022/07/12 01:07:35;;;;;;;38.03;26.27;;;14.10;99.90;;;;;;5071221;28;20246;-60
2022/07/12 01:10:01;;;;;;;38.17;27.00;;;14.10;99.90;;;;;;5072065;28;20028;-61
2022/07/12 01:12:27;;;;;;;39.95;27.17;;;14.00;99.90;;;;;;5071871;28;20024;-62
2022/07/12 01:14:53;;;;;;;39.05;27.35;;;13.90;99.90;;;;;;5072242;28;20028;-61
2022/07/12 01:17:24;;;;;;;45.25;29.05;;;13.80;99.90;;;;;;5070929;28;20028;-62
2022/07/12 01:19:54;;;;;;;39.38;26.45;;;13.80;99.90;;;;;;5072100;28;20020;-60
2022/07/12 01:22:25;;;;;;;39.97;27.40;;;13.70;99.90;;;;;;5071451;28;20832;-61
2022/07/12 01:24:50;;;;;;;41.85;28.02;;;13.80;99.90;;;;;;5071629;28;20044;-63
2022/07/12 01:27:16;;;;;;;38.13;27.33;;;13.80;99.90;;;;;;5071922;28;20020;-61
2022/07/12 01:29:42;;;;;;;41.45;27.92;;;13.80;99.90;;;;;;5071983;28;20024;-63
2022/07/12 01:32:26;;;;;;;39.92;26.52;;;13.80;99.90;;;;;;5071536;28;20449;-62
2022/07/12 01:34:53;;;;;;;40.70;27.58;;;13.80;99.90;;;;;;5071443;28;20096;-62
2022/07/12 01:37:20;;;;;;;38.45;27.55;;;13.80;99.90;;;;;;5071707;28;20483;-60
2022/07/12 01:39:48;;;;;;;39.58;26.63;;;13.70;99.90;;;;;;5071759;28;20082;-62
2022/07/12 01:42:13;;;;;;;36.92;27.05;;;13.70;99.90;;;;;;5071179;28;20028;-61
2022/07/12 01:44:40;;;;;;;37.45;26.42;;;13.70;99.90;;;;;;5071999;28;20532;-61
2022/07/12 01:47:06;;;;;;;35.63;25.80;;;13.70;99.90;;;;;;5071232;28;20678;-61
2022/07/12 01:49:32;;;;;;;36.58;25.88;;;13.70;99.90;;;;;;5072168;28;20020;-61
2022/07/12 01:51:58;;;;;;;37.17;26.88;;;13.60;99.90;;;;;;5070793;28;20020;-61
2022/07/12 01:54:25;;;;;;;38.85;26.52;;;13.60;99.90;;;;;;5066637;28;20036;-61
2022/07/12 01:56:52;;;;;;;36.15;26.13;;;13.50;99.90;;;;;;5052181;28;20580;-61
2022/07/12 01:59:18;;;;;;;37.55;25.13;;;13.50;99.90;;;;;;5051932;28;20384;-60
2022/07/12 02:01:45;;;;;;;39.72;26.30;;;13.40;99.90;;;;;;5050912;28;20124;-62
2022/07/12 02:04:11;;;;;;;42.25;28.50;;;13.40;99.90;;;;;;5051445;28;20079;-59
2022/07/12 02:06:38;;;;;;;43.53;26.73;;;13.30;99.90;;;;;;5067457;28;20033;-60
2022/07/12 02:09:04;;;;;;;39.88;27.17;;;13.30;99.90;;;;;;5071298;28;20398;-60
2022/07/12 02:11:30;;;;;;;41.75;27.98;;;13.30;99.90;;;;;;5071194;28;20025;-61
2022/07/12 02:13:56;;;;;;;41.58;26.88;;;13.40;99.90;;;;;;5071735;28;20032;-60
2022/07/12 02:16:21;;;;;;;35.65;25.17;;;13.40;99.90;;;;;;5071002;28;20021;-61
2022/07/12 02:18:47;;;;;;;35.30;24.35;;;13.40;99.90;;;;;;5071435;28;20028;-61
2022/07/12 02:21:12;;;;;;;36.03;26.08;;;13.40;99.90;;;;;;5071054;28;20052;-63
2022/07/12 02:23:38;;;;;;;38.08;26.27;;;13.40;99.90;;;;;;5071852;28;20032;-61
2022/07/12 02:26:04;;;;;;;34.55;24.60;;;13.40;99.90;;;;;;5071276;28;20032;-60
2022/07/12 02:28:31;;;;;;;35.42;23.10;;;13.30;99.90;;;;;;5071350;28;20032;-62
2022/07/12 02:30:57;;;;;;;38.05;24.95;;;13.40;99.90;;;;;;5070625;28;20013;-61
2022/07/12 02:33:22;;;;;;;36.47;24.42;;;13.30;99.90;;;;;;5070671;28;20039;-62
2022/07/12 02:35:48;;;;;;;32.95;23.42;;;13.40;99.90;;;;;;5071215;28;20546;-63
2022/07/12 02:38:13;;;;;;;37.85;25.40;;;13.40;99.90;;;;;;5071175;28;20027;-63
2022/07/12 02:40:54;;;;;;;38.03;24.00;;;13.40;99.90;;;;;;5071188;28;20078;-60
2022/07/12 02:43:27;;;;;;;39.10;25.70;;;13.30;99.90;;;;;;5070753;28;20029;-61
2022/07/12 02:45:56;;;;;;;39.35;24.50;;;13.30;99.90;;;;;;5071210;28;20474;-61
2022/07/12 02:48:22;;;;;;;36.95;24.92;;;13.20;99.90;;;;;;5069584;28;20024;-61
2022/07/12 02:50:48;;;;;;;36.92;24.73;;;13.30;99.90;;;;;;5072236;28;20029;-62
2022/07/12 02:53:14;;;;;;;33.72;23.83;;;13.30;99.90;;;;;;5071724;28;20035;-61
2022/07/12 02:55:40;;;;;;;38.50;24.38;;;13.30;99.90;;;;;;5071639;28;20043;-63
2022/07/12 02:58:06;;;;;;;45.55;28.00;;;13.10;99.90;;;;;;5071864;28;20037;-61
2022/07/12 03:00:32;;;;;;;46.80;26.77;;;13.10;99.90;;;;;;5071993;28;20025;-62
2022/07/12 03:02:58;;;;;;;41.28;26.80;;;13.00;99.90;;;;;;5071568;28;20028;-62
2022/07/12 03:05:23;;;;;;;38.42;26.30;;;13.00;99.90;;;;;;5071710;28;20058;-62
2022/07/12 03:07:49;;;;;;;41.88;28.25;;;13.00;99.90;;;;;;5071785;28;20409;-60
2022/07/12 03:10:15;;;;;;;43.75;27.50;;;12.90;99.90;;;;;;5071920;28;20035;-60
2022/07/12 03:12:40;;;;;;;43.15;27.05;;;12.90;99.90;;;;;;5071495;28;20035;-61
2022/07/12 03:15:07;;;;;;;38.88;27.10;;;12.90;99.90;;;;;;5071787;28;20029;-59
2022/07/12 03:17:33;;;;;;;41.65;28.45;;;12.90;99.90;;;;;;5071831;28;20054;-63
2022/07/12 03:19:59;;;;;;;47.65;29.70;;;12.90;99.90;;;;;;5071690;28;20031;-63
2022/07/12 03:22:24;;;;;;;48.38;29.90;;;12.90;99.90;;;;;;5071066;28;20029;-61
2022/07/12 03:24:50;;;;;;;44.17;28.17;;;12.90;99.90;;;;;;5071532;28;20043;-60
2022/07/12 03:27:16;;;;;;;46.35;27.35;;;12.80;99.90;;;;;;5071620;28;20025;-61
2022/07/12 03:29:42;;;;;;;49.60;28.67;;;12.80;99.90;;;;;;5071671;28;20035;-62
2022/07/12 03:32:07;;;;;;;41.88;27.50;;;12.80;99.90;;;;;;5070670;28;20041;-61
2022/07/12 03:34:33;;;;;;;40.15;27.38;;;12.80;99.90;;;;;;5071484;28;20103;-59
2022/07/12 03:36:59;;;;;;;45.15;27.02;;;12.80;99.90;;;;;;5071293;28;20399;-61
2022/07/12 03:39:25;;;;;;;38.85;25.55;;;12.80;99.90;;;;;;5071443;28;20032;-61
2022/07/12 03:41:50;;;;;;;37.53;24.83;;;12.90;99.90;;;;;;5070953;28;20033;-59
2022/07/12 03:44:16;;;;;;;43.25;27.42;;;12.80;99.90;;;;;;5071574;28;20036;-61
2022/07/12 03:46:41;;;;;;;38.70;25.75;;;12.80;99.90;;;;;;5071407;28;20068;-60
2022/07/12 03:49:07;;;;;;;41.30;25.33;;;12.80;99.90;;;;;;5070801;28;20025;-60
2022/07/12 03:51:33;;;;;;;39.15;26.02;;;12.80;99.90;;;;;;5071108;28;20036;-62
2022/07/12 03:53:58;;;;;;;48.03;26.50;;;12.80;99.90;;;;;;5071312;28;20024;-62
2022/07/12 03:59:08;;;;;;;42.25;26.95;;;12.70;99.90;;;;;;5062363;28;20058;-62
2022/07/12 04:01:34;;;;;;;44.85;29.38;;;12.70;99.90;;;;;;5050913;28;20041;-63
2022/07/12 04:03:59;;;;;;;41.90;27.08;;;12.70;99.90;;;;;;5051310;28;20025;-62
2022/07/12 04:06:25;;;;;;;39.90;26.85;;;12.70;99.90;;;;;;5065029;28;20032;-63
2022/07/12 04:08:50;;;;;;;38.22;27.25;;;12.80;99.90;;;;;;5071089;28;20478;-63
2022/07/12 04:11:16;;;;;;;39.88;27.33;;;12.80;99.90;;;;;;5071152;28;20368;-64
2022/07/12 04:13:41;;;;;;;40.47;27.13;;;12.90;99.90;;;;;;5071120;28;20083;-60
2022/07/12 04:16:07;;;;;;;43.30;27.67;;;12.90;99.90;;;;;;5071156;28;20395;-61
2022/07/12 04:18:33;;;;;;;44.17;28.42;;;12.90;99.90;;;;;;5071137;28;20490;-62
2022/07/12 04:20:58;;;;;;;42.45;28.30;;;12.90;99.90;;;;;;5070864;28;20036;-63
2022/07/12 04:23:24;;;;;;;39.25;27.45;;;13.00;99.90;;;;;;5070657;28;20032;-63
2022/07/12 04:25:51;;;;;;;46.90;28.00;;;13.00;99.90;;;;;;5069608;28;20043;-63
2022/07/12 04:28:16;;;;;;;44.92;30.02;;;13.00;99.90;;;;;;5069787;28;20017;-63
2022/07/12 04:30:44;;;;;;;49.45;30.40;;;13.00;99.90;;;;;;5069748;28;20075;-63
2022/07/12 04:33:10;;;;;;;43.20;28.88;;;13.00;99.90;;;;;;5071613;22;20045;-66
2022/07/12 04:35:36;;;;;;;52.97;29.05;;;13.00;99.90;;;;;;5030920;28;20120;-66
2022/07/12 04:38:01;;;;;;;47.58;31.02;;;13.00;99.90;;;;;;5049191;28;20100;-67
2022/07/12 04:40:27;;;;;;;49.10;31.85;;;13.10;99.90;;;;;;5031401;28;20028;-66
2022/07/12 04:42:53;;;;;;;47.97;30.20;;;13.20;99.90;;;;;;5049011;28;20096;-67
2022/07/12 04:45:18;;;;;;;42.33;27.77;;;13.20;99.90;;;;;;5052979;28;20100;-67
2022/07/12 04:47:44;;;;;;;49.05;30.50;;;13.30;99.90;;;;;;5052739;28;20049;-67
2022/07/12 04:50:09;;;;;;;50.75;31.95;;;13.40;99.90;;;;;;5052521;28;20032;-67
2022/07/12 04:52:35;;;;;;;53.42;31.27;;;13.50;99.90;;;;;;5051968;28;20472;-67
2022/07/12 04:55:01;;;;;;;48.78;30.88;;;13.50;99.90;;;;;;5052457;28;20021;-67
2022/07/12 04:57:26;;;;;;;52.25;32.80;;;13.60;99.90;;;;;;5052680;28;20040;-67
2022/07/12 04:59:52;;;;;;;44.90;29.92;;;13.70;99.90;;;;;;5052568;28;20059;-67
2022/07/12 05:02:18;;;;;;;49.85;31.65;;;13.70;99.90;;;;;;5052218;28;20035;-67
2022/07/12 05:04:44;;;;;;;40.15;28.17;;;13.70;99.90;;;;;;5051983;28;20078;-67
2022/07/12 05:07:09;;;;;;;51.17;30.90;;;13.80;99.90;;;;;;5052277;28;20475;-69
2022/07/12 05:09:35;;;;;;;45.72;30.25;;;13.90;99.90;;;;;;5052227;28;20077;-68
2022/07/12 05:12:00;;;;;;;50.78;32.08;;;14.00;99.90;;;;;;5034189;28;20589;-68
2022/07/12 05:14:26;;;;;;;49.65;31.02;;;14.00;99.90;;;;;;5051845;28;20039;-68
2022/07/12 05:16:51;;;;;;;54.60;31.00;;;14.10;99.90;;;;;;5052355;28;20021;-68
2022/07/12 05:19:18;;;;;;;46.90;30.55;;;14.20;99.90;;;;;;5051786;28;20395;-68
2022/07/12 05:21:44;;;;;;;53.25;33.10;;;14.20;99.90;;;;;;5051758;28;20037;-68
2022/07/12 05:24:09;;;;;;;49.65;33.40;;;14.30;99.90;;;;;;5051570;28;20223;-68
2022/07/12 05:26:35;;;;;;;43.08;31.20;;;14.30;99.90;;;;;;5052402;28;20395;-68
2022/07/12 05:29:01;;;;;;;49.60;33.00;;;14.40;99.90;;;;;;5051548;28;20426;-68
2022/07/12 05:31:26;;;;;;;51.78;33.92;;;14.40;99.90;;;;;;5052143;28;20032;-68
2022/07/12 05:33:52;;;;;;;52.00;33.25;;;14.40;99.90;;;;;;5051724;28;20029;-67
2022/07/12 05:36:18;;;;;;;49.00;34.22;;;14.50;99.90;;;;;;5051185;28;20075;-68
2022/07/12 05:38:44;;;;;;;51.50;33.97;;;14.60;99.90;;;;;;5052274;28;20041;-68
2022/07/12 05:41:09;;;;;;;46.08;31.90;;;14.70;99.90;;;;;;5051777;28;20048;-68
2022/07/12 05:43:35;;;;;;;53.60;34.13;;;14.70;99.90;;;;;;5033595;28;20025;-67
2022/07/12 05:46:01;;;;;;;54.75;32.40;;;14.70;99.90;;;;;;5051495;28;20025;-68
2022/07/12 05:48:26;;;;;;;52.25;31.13;;;14.80;99.90;;;;;;5051179;28;20648;-67
2022/07/12 05:50:52;;;;;;;45.33;29.90;;;14.80;99.90;;;;;;5051446;28;20025;-67
2022/07/12 05:53:24;;;;;;;58.05;34.45;;;14.90;99.90;;;;;;5051117;28;20368;-68
2022/07/12 05:55:51;;;;;;;52.03;34.03;;;14.90;99.90;;;;;;5044768;28;20021;-68
2022/07/12 05:58:17;;;;;;;52.35;34.42;;;15.00;99.90;;;;;;5031218;28;20113;-68
2022/07/12 06:00:43;;;;;;;61.75;35.30;;;15.10;99.90;;;;;;5032028;28;20032;-68
2022/07/12 06:03:09;;;;;;;51.83;32.72;;;15.10;99.90;;;;;;5031037;28;20037;-68
2022/07/12 06:05:34;;;;;;;59.63;36.25;;;15.20;99.90;;;;;;5019663;28;20021;-67
2022/07/12 06:08:00;;;;;;;52.72;36.53;;;15.20;99.90;;;;;;5051343;28;20124;-68
2022/07/12 06:10:25;;;;;;;72.18;41.75;;;15.30;99.90;;;;;;5033394;28;20479;-68
2022/07/12 06:12:51;;;;;;;53.20;34.58;;;15.30;99.90;;;;;;5050863;28;20060;-68
2022/07/12 06:15:17;;;;;;;53.92;37.03;;;15.40;99.90;;;;;;5033323;28;20045;-68
2022/07/12 06:17:42;;;;;;;62.95;37.30;;;15.40;99.90;;;;;;5051089;28;20070;-68
2022/07/12 06:20:09;;;;;;;54.65;38.10;;;15.60;99.90;;;;;;5050367;28;20090;-68
2022/07/12 06:22:34;;;;;;;56.13;37.35;;;15.70;99.90;;;;;;5050742;28;20438;-68
2022/07/12 06:25:00;;;;;;;55.75;37.80;;;15.70;99.90;;;;;;5050932;28;20033;-68
2022/07/12 06:27:25;;;;;;;59.00;37.38;;;15.80;99.90;;;;;;5050936;28;20391;-68
2022/07/12 06:29:51;;;;;;;62.67;39.42;;;15.90;99.90;;;;;;5033275;28;20025;-68
2022/07/12 06:32:17;;;;;;;61.58;40.35;;;15.90;99.90;;;;;;5050443;28;20043;-68
2022/07/12 06:34:43;;;;;;;54.78;35.50;;;16.10;99.90;;;;;;5050630;28;20399;-68
2022/07/12 06:37:08;;;;;;;54.10;36.80;;;16.10;99.90;;;;;;5050903;28;20037;-68
2022/07/12 06:39:35;;;;;;;50.97;33.85;;;16.20;99.90;;;;;;5050723;28;20449;-68
2022/07/12 06:42:03;;;;;;;49.80;33.53;;;16.30;99.90;;;;;;5047655;28;20120;-68
2022/07/12 06:44:30;;;;;;;53.00;33.70;;;16.40;99.90;;;;;;5051002;28;20048;-68
2022/07/12 06:46:56;;;;;;;49.20;31.80;;;16.50;99.90;;;;;;5032507;28;20029;-68
2022/07/12 06:49:22;;;;;;;48.03;30.70;;;16.60;99.90;;;;;;5050311;28;20113;-68
2022/07/12 06:51:47;;;;;;;41.17;26.52;;;16.70;99.90;;;;;;5050158;28;20068;-68
2022/07/12 06:54:13;;;;;;;43.22;29.13;;;16.80;99.90;;;;;;5050136;28;20120;-68
2022/07/12 06:56:38;;;;;;;41.78;29.17;;;16.90;99.90;;;;;;5032738;28;20067;-67
2022/07/12 06:59:04;;;;;;;38.70;27.35;;;17.00;99.90;;;;;;5050292;28;20033;-68
2022/07/12 07:01:29;;;;;;;36.85;26.40;;;17.10;99.90;;;;;;5050004;28;20021;-68
2022/07/12 07:03:55;;;;;;;37.10;26.10;;;17.20;99.90;;;;;;5050386;28;20039;-68
2022/07/12 07:06:20;;;;;;;33.20;25.17;;;17.40;99.90;;;;;;5049620;28;20037;-67
2022/07/12 07:08:46;;;;;;;35.97;26.08;;;17.50;99.90;;;;;;5032464;28;20021;-68
2022/07/12 07:11:12;;;;;;;38.15;27.17;;;17.60;99.90;;;;;;5049830;28;20036;-68
2022/07/12 07:13:37;;;;;;;37.50;23.92;;;17.60;99.90;;;;;;5049697;28;20491;-67
2022/07/12 07:16:03;;;;;;;38.72;27.00;;;17.70;99.90;;;;;;5049991;28;20032;-67
2022/07/12 07:18:28;;;;;;;40.90;28.63;;;17.80;99.90;;;;;;5049637;28;20527;-68
2022/07/12 07:20:54;;;;;;;40.10;26.25;;;17.90;99.90;;;;;;5049925;28;20079;-67
2022/07/12 07:23:19;;;;;;;39.65;27.45;;;18.10;99.90;;;;;;5049345;28;20036;-67
2022/07/12 07:25:46;;;;;;;35.95;22.95;;;18.20;99.90;;;;;;5049761;28;20036;-67
2022/07/12 07:28:12;;;;;;;29.05;21.23;;;18.30;99.90;;;;;;5050024;28;20036;-67
2022/07/12 07:30:52;;;;;;;32.40;22.70;;;18.40;99.90;;;;;;5049796;28;20017;-67
2022/07/12 07:33:25;;;;;;;24.67;18.02;;;18.40;99.90;;;;;;5048980;28;20035;-68
2022/07/12 07:35:52;;;;;;;34.35;21.08;;;18.50;99.90;;;;;;5049743;28;20146;-68
2022/07/12 07:38:19;;;;;;;28.60;21.02;;;18.70;99.90;;;;;;5049337;28;20533;-68
2022/07/12 07:40:45;;;;;;;24.58;17.90;;;18.80;99.90;;;;;;5049589;28;20047;-67
2022/07/12 07:43:10;;;;;;;25.77;17.48;;;18.90;99.90;;;;;;5030829;28;20028;-67
2022/07/12 07:45:36;;;;;;;26.02;16.20;;;19.00;99.90;;;;;;5049493;28;20025;-68
2022/07/12 07:48:01;;;;;;;25.33;15.07;;;19.10;99.90;;;;;;5049585;28;20166;-68
2022/07/12 07:50:28;;;;;;;20.08;13.93;;;19.10;99.90;;;;;;5031687;28;20040;-68
2022/07/12 07:52:53;;;;;;;20.15;14.82;;;19.20;99.90;;;;;;5048654;28;20036;-68
2022/07/12 07:55:19;;;;;;;20.63;14.85;;;19.40;99.90;;;;;;5047393;28;20013;-67
2022/07/12 07:57:46;;;;;;;23.38;15.63;;;19.40;99.90;;;;;;5045356;28;20061;-67
2022/07/12 08:00:13;;;;;;;28.10;17.70;;;19.50;99.90;;;;;;5049427;28;20453;-68
2022/07/12 08:02:38;;;;;;;24.98;15.70;;;19.60;99.90;;;;;;5049057;28;20037;-68
2022/07/12 08:05:04;;;;;;;19.88;12.90;;;19.70;99.90;;;;;;5049044;28;20037;-68
2022/07/12 08:07:30;;;;;;;22.13;15.63;;;19.80;99.90;;;;;;5049307;28;20098;-68
2022/07/12 08:09:55;;;;;;;19.92;14.15;;;19.80;99.90;;;;;;5049559;28;20028;-68
2022/07/12 08:12:21;;;;;;;21.08;14.00;;;19.90;99.90;;;;;;5049052;28;20034;-68
2022/07/12 08:14:46;;;;;;;26.30;15.95;;;20.00;99.90;;;;;;5049495;28;20035;-68
2022/07/12 08:17:12;;;;;;;21.23;14.40;;;20.10;99.90;;;;;;5050043;28;20029;-68
2022/07/12 08:19:37;;;;;;;16.38;12.57;;;20.20;99.90;;;;;;5053056;28;20124;-68
2022/07/12 08:22:03;;;;;;;23.30;13.20;;;20.20;99.90;;;;;;5034902;28;20055;-68
2022/07/12 08:24:29;;;;;;;24.02;16.38;;;20.30;99.90;;;;;;5053546;28;20460;-68
2022/07/12 08:26:55;;;;;;;26.23;16.05;;;20.30;99.90;;;;;;5052715;28;20125;-68
2022/07/12 08:29:20;;;;;;;25.55;15.35;;;20.40;99.90;;;;;;5053043;28;20031;-68
2022/07/12 08:31:46;;;;;;;25.77;16.65;;;20.50;99.90;;;;;;5052623;28;20059;-67
2022/07/12 08:34:12;;;;;;;25.05;16.45;;;20.50;99.90;;;;;;5052639;28;20049;-67
2022/07/12 08:36:38;;;;;;;16.38;11.90;;;20.60;99.90;;;;;;5052656;28;20068;-68
2022/07/12 08:39:03;;;;;;;20.38;12.98;;;20.70;99.90;;;;;;5052950;28;20025;-68
2022/07/12 08:41:29;;;;;;;17.35;12.13;;;20.70;99.90;;;;;;5052484;28;20446;-67
2022/07/12 08:43:55;;;;;;;13.57;10.57;;;20.70;99.90;;;;;;5051406;28;20130;-68
2022/07/12 08:46:21;;;;;;;20.45;12.13;;;20.80;99.90;;;;;;5052188;28;20244;-68
2022/07/12 08:48:46;;;;;;;16.48;11.90;;;20.90;99.90;;;;;;5042619;28;20029;-68
2022/07/12 08:51:19;;;;;;;15.80;11.38;;;20.90;99.90;;;;;;5039671;28;20040;-68
2022/07/12 08:53:44;;;;;;;16.10;9.65;;;21.00;99.90;;;;;;5052727;28;20013;-68
2022/07/12 08:56:32;;;;;;;11.52;8.90;;;21.10;99.90;;;;;;5051990;28;20868;-68
2022/07/12 08:59:15;;;;;;;13.38;9.52;;;21.20;99.90;;;;;;5052518;28;20040;-68
2022/07/12 09:01:45;;;;;;;10.88;7.95;;;21.20;99.90;;;;;;5052042;28;20033;-68
2022/07/12 09:04:19;;;;;;;8.38;6.72;;;21.40;99.90;;;;;;5051857;28;20503;-67
2022/07/12 09:06:45;;;;;;;11.47;8.77;;;21.50;99.90;;;;;;5052439;28;20079;-68
2022/07/12 09:09:11;;;;;;;15.43;9.30;;;21.70;99.90;;;;;;5052098;28;20398;-68
2022/07/12 09:11:39;;;;;;;11.43;8.10;;;21.80;99.90;;;;;;5051988;28;20025;-67
2022/07/12 09:14:05;;;;;;;9.80;7.32;;;21.90;99.90;;;;;;5052192;28;20108;-67
2022/07/12 09:16:31;;;;;;;10.95;6.00;;;22.00;99.90;;;;;;5052258;28;20063;-67
2022/07/12 09:19:16;;;;;;;9.32;6.90;;;22.10;99.90;;;;;;5052641;28;20071;-68
2022/07/12 09:21:53;;;;;;;5.68;4.45;;;22.20;99.90;;;;;;5051431;28;20033;-67
2022/07/12 09:24:20;;;;;;;4.93;3.40;;;22.20;99.90;;;;;;5051765;28;20174;-68
2022/07/12 09:26:46;;;;;;;13.02;7.38;;;22.30;99.90;;;;;;5052073;28;20036;-67
2022/07/12 09:29:13;;;;;;;6.82;4.97;;;22.50;99.90;;;;;;5050821;28;20104;-68
2022/07/12 09:37:17;;;;;;;10.50;6.00;;;22.90;99.90;;;;;;5051859;28;20399;-68
2022/07/12 09:39:43;;;;;;;7.63;5.20;;;23.00;99.90;;;;;;5051941;28;20040;-68
2022/07/12 09:42:10;;;;;;;7.43;4.53;;;23.20;99.90;;;;;;5051006;28;20475;-67
2022/07/12 09:44:37;;;;;;;7.53;5.93;;;23.30;99.90;;;;;;5051314;28;20029;-68
2022/07/12 09:47:03;;;;;;;11.60;6.00;;;23.40;99.90;;;;;;5051597;28;20040;-68
2022/07/12 09:49:29;;;;;;;7.82;5.65;;;23.40;99.90;;;;;;5051446;28;20025;-67
2022/07/12 09:51:56;;;;;;;5.45;4.22;;;23.30;99.90;;;;;;5051559;28;20044;-68
2022/07/12 09:54:35;;;;;;;7.32;4.18;;;23.50;99.90;;;;;;5051693;28;20035;-68
2022/07/12 09:57:03;;;;;;;4.30;3.40;;;23.60;99.90;;;;;;5051519;28;20214;-68
2022/07/12 09:59:29;;;;;;;6.00;3.72;;;23.80;99.90;;;;;;5051127;28;20090;-68
2022/07/12 10:02:00;;;;;;;4.25;3.50;;;23.90;99.90;;;;;;5050193;28;20395;-68
2022/07/12 10:04:30;;;;;;;3.58;3.28;;;24.10;99.90;;;;;;5051319;28;20022;-68
2022/07/12 10:06:57;;;;;;;4.47;3.70;;;24.40;99.90;;;;;;5051084;28;20510;-68
2022/07/12 10:09:24;;;;;;;10.60;4.05;;;24.60;99.90;;;;;;5051912;28;20032;-68
2022/07/12 10:11:50;;;;;;;5.57;3.00;;;24.50;99.90;;;;;;5051397;28;20373;-67
2022/07/12 10:14:16;;;;;;;3.53;2.42;;;24.50;99.90;;;;;;5051573;28;20502;-68
2022/07/12 10:16:43;;;;;;;3.75;2.95;;;24.60;99.90;;;;;;5051592;28;20033;-68
2022/07/12 10:19:26;;;;;;;4.35;3.47;;;24.80;99.90;;;;;;5051548;28;20040;-68
2022/07/12 10:21:54;;;;;;;7.95;3.38;;;24.80;99.90;;;;;;5051059;28;20036;-68
2022/07/12 10:24:32;;;;;;;4.20;3.17;;;24.70;99.90;;;;;;5033500;28;20423;-67
2022/07/12 10:26:59;;;;;;;7.50;4.38;;;25.00;99.90;;;;;;5050943;28;20017;-68
2022/07/12 10:29:25;;;;;;;4.22;3.03;;;24.90;99.90;;;;;;5051418;28;20025;-68
2022/07/12 10:31:53;;;;;;;3.72;2.40;;;25.00;99.90;;;;;;5051342;28;20021;-68
2022/07/12 10:34:22;;;;;;;2.50;1.70;;;25.50;99.90;;;;;;5051150;28;20511;-67
2022/07/12 10:36:56;;;;;;;1.98;1.67;;;25.60;99.90;;;;;;5051265;28;20053;-66
2022/07/12 10:39:26;;;;;;;1.75;1.65;;;25.80;99.90;;;;;;5050938;28;20025;-66
2022/07/12 10:42:05;;;;;;;2.38;1.95;;;25.80;99.90;;;;;;5049899;28;20044;-66
2022/07/12 10:44:39;;;;;;;2.92;2.20;;;26.10;99.90;;;;;;5050880;28;20071;-67
2022/07/12 10:47:06;;;;;;;11.88;8.35;;;26.00;99.90;;;;;;5050161;28;20116;-67
2022/07/12 10:49:35;;;;;;;2.47;1.98;;;25.90;99.90;;;;;;5049053;28;20792;-67
2022/07/12 10:52:10;;;;;;;2.38;2.17;;;26.00;99.90;;;;;;5031027;28;20400;-67
2022/07/12 10:54:36;;;;;;;2.22;1.88;;;26.10;99.90;;;;;;5039452;28;20021;-67
2022/07/12 10:57:02;;;;;;;2.10;1.90;;;26.10;99.90;;;;;;5032542;28;20024;-67
2022/07/12 10:59:29;;;;;;;2.60;2.03;;;26.40;99.90;;;;;;5050366;28;20029;-67
2022/07/12 11:01:55;;;;;;;2.45;2.17;;;26.30;99.90;;;;;;5050393;28;20067;-67
2022/07/12 11:04:21;;;;;;;2.30;1.95;;;26.50;99.90;;;;;;5050412;28;20080;-67
2022/07/12 11:06:48;;;;;;;2.10;1.60;;;26.60;99.90;;;;;;5049992;28;20488;-67
2022/07/12 11:09:17;;;;;;;1.73;1.60;;;26.70;99.90;;;;;;5050306;28;20083;-67
2022/07/12 11:11:44;;;;;;;4.05;1.98;;;26.90;99.90;;;;;;5049648;28;20025;-67
2022/07/12 11:14:11;;;;;;;2.45;1.70;;;27.20;99.90;;;;;;5050241;28;20483;-68
2022/07/12 11:16:44;;;;;;;2.50;1.65;;;27.40;99.90;;;;;;5050379;28;20021;-68
2022/07/12 11:19:09;;;;;;;1.37;1.27;;;27.60;99.90;;;;;;5050584;28;20394;-67
2022/07/12 11:21:35;;;;;;;2.08;1.20;;;27.60;99.90;;;;;;5049948;28;20025;-69
2022/07/12 11:24:01;;;;;;;1.40;1.30;;;27.40;99.90;;;;;;5049280;28;20025;-68
2022/07/12 11:26:27;;;;;;;1.10;1.00;;;27.50;99.90;;;;;;5050486;28;20039;-68
2022/07/12 11:28:57;;;;;;;2.08;1.10;;;27.30;99.90;;;;;;5050163;28;20024;-68
2022/07/12 11:31:25;;;;;;;1.10;0.90;;;27.80;99.90;;;;;;5049398;28;20029;-68
2022/07/12 11:33:53;;;;;;;1.33;1.02;;;28.20;99.40;;;;;;5032554;28;20029;-68
2022/07/12 11:36:19;;;;;;;1.17;0.95;;;28.50;99.90;;;;;;5049301;28;20021;-68
2022/07/12 11:38:46;;;;;;;1.38;1.10;;;28.30;99.90;;;;;;5032801;28;20029;-68
2022/07/12 11:41:13;;;;;;;4.47;0.95;;;28.40;99.90;;;;;;5050066;28;20032;-68
2022/07/12 11:43:39;;;;;;;1.27;1.17;;;28.60;97.90;;;;;;5049879;28;20033;-68
2022/07/12 11:46:06;;;;;;;1.52;0.98;;;28.50;99.10;;;;;;5049767;28;20025;-68
2022/07/12 11:48:32;;;;;;;2.92;1.20;;;28.80;95.90;;;;;;5049966;28;20719;-68
2022/07/12 11:51:05;;;;;;;1.33;1.23;;;28.40;95.00;;;;;;5050040;28;20074;-68
2022/07/12 11:53:32;;;;;;;1.35;1.15;;;27.80;94.30;;;;;;5054952;28;20021;-68
2022/07/12 11:56:00;;;;;;;0.95;0.80;;;28.20;95.00;;;;;;5056508;28;20492;-67
2022/07/12 11:58:27;;;;;;;1.90;0.93;;;28.30;93.90;;;;;;5056490;28;20035;-67
2022/07/12 12:00:54;;;;;;;1.20;1.10;;;28.50;94.50;;;;;;5056264;28;20032;-67
2022/07/12 12:03:21;;;;;;;1.67;1.10;;;28.70;94.00;;;;;;5038153;28;20020;-68
2022/07/12 12:05:49;;;;;;;1.17;1.08;;;28.70;91.60;;;;;;5056093;28;20031;-68
2022/07/12 12:08:16;;;;;;;1.33;1.00;;;28.40;91.20;;;;;;5055844;28;20053;-67
2022/07/12 12:10:43;;;;;;;1.10;1.00;;;28.30;91.50;;;;;;5056368;28;20021;-69
2022/07/12 12:13:17;;;;;;;1.25;1.10;;;28.60;93.00;;;;;;5055878;28;20025;-69
2022/07/12 12:15:54;;;;;;;;;;;28.80;93.70;;;;;;5056860;28;20029;-68
2022/07/12 12:18:38;;;;;;;1.02;0.90;;;28.90;91.70;;;;;;5056297;28;19904;-69
2022/07/12 12:21:11;;;;;;;1.60;1.38;;;29.10;90.20;;;;;;5056386;28;20059;-68
2022/07/12 12:23:38;;;;;;;1.45;1.20;;;29.10;90.80;;;;;;5055876;28;20438;-69
2022/07/12 12:26:23;;;;;;;1.42;1.20;;;29.10;90.70;;;;;;5056147;28;20032;-69
2022/07/12 12:28:49;;;;;;;;;;;29.30;90.40;;;;;;5056804;28;20025;-68
2022/07/12 12:31:17;;;;;;;1.42;1.20;;;29.40;91.40;;;;;;5056073;28;19905;-69
2022/07/12 12:33:56;;;;;;;1.17;1.08;;;29.30;94.20;;;;;;5055129;28;20053;-69
2022/07/12 12:36:25;;;;;;;3.40;1.20;;;28.80;92.80;;;;;;5054962;28;20029;-69
2022/07/12 12:38:53;;;;;;;2.15;1.10;;;29.10;91.80;;;;;;5054973;28;20036;-68
2022/07/12 12:41:22;;;;;;;0.90;0.90;;;29.10;90.60;;;;;;5050321;28;22035;-68